Time;durP1;ratioP1;P1;durP2;ratioP2;P2;SDS_P1;SDS_P2;PMS_P1;PMS_P2;Temp;Humidity;BMP_temperature;BMP_pressure;BME280_temperature;BME280_humidity;BME280_pressure;Samples;Min_cycle;Max_cycle;Signal;HPM_P1;HPM_P2
2023/05/01 00:00:48;;;;;;;16.03;7.77;;;2.70;99.90;1.60;100947;;;;562553;249;24075;-83
2023/05/01 00:03:19;;;;;;;12.03;7.17;;;2.60;99.90;1.60;100946;;;;562450;249;24157;-75
2023/05/01 00:05:47;;;;;;;9.70;6.73;;;2.60;99.90;1.60;100934;;;;573784;244;24096;-76
2023/05/01 00:08:15;;;;;;;10.40;7.13;;;2.60;99.90;1.50;100935;;;;590098;239;24035;-73
2023/05/01 00:10:43;;;;;;;12.13;7.60;;;2.60;99.90;1.50;100932;;;;590169;239;24082;-77
2023/05/01 00:13:11;;;;;;;11.50;7.90;;;2.50;99.90;1.40;100929;;;;590177;239;24060;-73
2023/05/01 00:15:38;;;;;;;9.77;7.77;;;2.50;99.90;1.40;100935;;;;590090;239;24016;-76
2023/05/01 00:18:07;;;;;;;11.50;7.70;;;2.40;99.90;1.30;100924;;;;590191;239;24135;-73
2023/05/01 00:20:35;;;;;;;12.43;7.77;;;2.40;99.90;1.30;100933;;;;588162;239;24014;-74
2023/05/01 00:23:02;;;;;;;9.10;7.23;;;2.40;99.90;1.20;100932;;;;590071;239;24090;-74
2023/05/01 00:25:30;;;;;;;12.40;7.57;;;2.30;99.90;1.20;100933;;;;590098;239;24038;-73
2023/05/01 00:27:58;;;;;;;16.07;7.93;;;2.30;99.90;1.20;100932;;;;590941;239;24055;-75
2023/05/01 00:30:29;;;;;;;12.23;7.17;;;2.30;99.90;1.30;100938;;;;590922;239;24112;-80
2023/05/01 00:32:58;;;;;;;14.43;7.80;;;2.30;99.90;1.30;100936;;;;591097;239;24012;-80
2023/05/01 00:35:25;;;;;;;12.50;7.23;;;2.40;99.90;1.30;100932;;;;590679;239;24113;-78
2023/05/01 00:37:53;;;;;;;10.50;6.70;;;2.30;99.90;1.30;100927;;;;590861;239;24026;-80
2023/05/01 00:40:21;;;;;;;11.17;7.37;;;2.40;99.90;1.30;100929;;;;590998;239;24034;-81
2023/05/01 00:42:48;;;;;;;13.37;7.17;;;2.30;99.90;1.20;100930;;;;590756;239;24053;-79
2023/05/01 00:45:17;;;;;;;10.47;6.67;;;2.30;99.90;1.20;100925;;;;590707;239;24153;-80
2023/05/01 00:47:44;;;;;;;6.43;5.67;;;2.30;99.90;1.20;100917;;;;588502;239;24051;-79
2023/05/01 00:50:12;;;;;;;14.65;8.23;;;2.20;99.90;1.10;100909;;;;584849;239;35038;-83
2023/05/01 00:52:44;;;;;;;11.57;6.13;;;2.20;99.90;1.10;100919;;;;590408;239;24093;-82
2023/05/01 00:55:08;;;;;;;7.70;6.07;;;2.20;99.90;1.10;100925;;;;590290;239;25532;-77
2023/05/01 00:57:36;;;;;;;15.60;7.53;;;2.20;99.90;1.10;100918;;;;590106;239;24102;-80
2023/05/01 01:00:04;;;;;;;11.70;6.87;;;2.20;99.90;1.10;100921;;;;589963;239;24030;-83
2023/05/01 01:02:32;;;;;;;8.83;6.30;;;2.10;99.90;1.10;100921;;;;589816;239;24145;-76
2023/05/01 01:05:00;;;;;;;12.00;6.43;;;2.10;99.90;1.10;100920;;;;589744;239;24030;-84
2023/05/01 01:07:54;;;;;;;14.03;7.00;;;2.20;99.90;1.10;100920;;;;589696;239;24047;-83
2023/05/01 01:10:51;;;;;;;10.73;6.77;;;2.20;99.90;1.10;100922;;;;589767;239;24046;-84
2023/05/01 01:13:56;;;;;;;13.37;6.23;;;2.20;99.90;1.20;100926;;;;590120;239;24061;-82
2023/05/01 01:16:47;;;;;;;13.80;6.37;;;2.20;99.90;1.10;100918;;;;579554;243;24092;-82
2023/05/01 01:19:44;;;;;;;9.00;6.80;;;2.20;99.90;1.20;100923;;;;577625;245;24067;-81
2023/05/01 01:22:15;;;;;;;11.82;6.90;;;2.20;99.90;1.20;100921;;;;591569;239;34959;-82
2023/05/01 01:24:46;;;;;;;15.27;7.20;;;2.20;99.90;1.10;100932;;;;584955;239;35022;-77
2023/05/01 01:27:37;;;;;;;13.83;6.47;;;2.20;99.90;1.10;100929;;;;597585;239;24031;-83
2023/05/01 01:30:39;;;;;;;11.82;6.97;;;2.20;99.90;1.10;100921;;;;584466;239;35476;-83
2023/05/01 01:33:37;;;;;;;9.30;6.80;;;2.20;99.90;1.00;100923;;;;592538;239;24034;-82
2023/05/01 01:36:06;;;;;;;13.57;7.33;;;2.10;99.90;0.90;100913;;;;597354;239;24146;-83
2023/05/01 01:38:53;;;;;;;14.20;9.63;;;2.00;99.90;0.90;100923;;;;585721;237;24125;-82
2023/05/01 01:41:24;;;;;;;21.43;11.97;;;2.00;99.90;1.00;100917;;;;591549;239;24094;-83
2023/05/01 01:44:01;;;;;;;18.77;11.70;;;2.10;99.90;1.10;100915;;;;588824;244;24079;-84
2023/05/01 01:46:29;;;;;;;18.40;13.13;;;2.10;99.90;1.10;100922;;;;590978;239;24038;-83
2023/05/01 01:48:57;;;;;;;19.23;12.97;;;2.10;99.90;1.10;100922;;;;575513;242;25106;-83
2023/05/01 01:51:25;;;;;;;19.57;12.97;;;2.20;99.90;1.20;100913;;;;585166;242;24091;-84
2023/05/01 01:53:53;;;;;;;23.13;13.33;;;2.20;99.90;1.10;100914;;;;586681;244;24142;-83
2023/05/01 01:56:21;;;;;;;20.73;13.20;;;2.20;99.90;1.10;100913;;;;586792;244;24077;-82
2023/05/01 01:58:49;;;;;;;16.73;12.27;;;2.20;99.90;1.10;100917;;;;575672;245;24080;-83
2023/05/01 02:01:20;;;;;;;14.30;10.47;;;2.10;99.90;1.00;100918;;;;589920;239;24096;-83
2023/05/01 02:03:44;;;;;;;22.50;10.53;;;2.10;99.90;1.00;100903;;;;578513;244;24109;-77
2023/05/01 02:06:13;;;;;;;14.77;8.68;;;2.00;99.90;1.00;100905;;;;583032;243;35122;-81
2023/05/01 02:08:45;;;;;;;9.23;6.30;;;2.00;99.90;0.90;100906;;;;589900;239;24028;-82
2023/05/01 02:11:09;;;;;;;11.50;7.17;;;2.00;99.90;0.90;100907;;;;590012;239;24055;-81
2023/05/01 02:13:37;;;;;;;11.93;7.43;;;2.00;99.90;0.90;100903;;;;590210;239;24077;-82
2023/05/01 02:16:08;;;;;;;13.23;7.47;;;2.00;99.90;0.80;100897;;;;590212;239;24026;-84
2023/05/01 02:18:33;;;;;;;12.73;7.10;;;1.90;99.90;0.80;100899;;;;586737;239;24107;-81
2023/05/01 02:21:01;;;;;;;9.57;6.93;;;1.90;99.90;0.80;100905;;;;586138;237;25442;-80
2023/05/01 02:23:32;;;;;;;9.80;6.13;;;1.90;99.90;0.80;100893;;;;590076;239;24045;-78
2023/05/01 02:25:56;;;;;;;12.27;7.00;;;1.90;99.90;0.80;100895;;;;590214;239;24074;-84
2023/05/01 02:28:24;;;;;;;11.03;7.30;;;1.90;99.90;0.70;100890;;;;590047;239;24090;-81
2023/05/01 02:30:52;;;;;;;9.87;6.70;;;1.80;99.90;0.80;100894;;;;599093;238;24041;-82
2023/05/01 02:33:20;;;;;;;12.80;6.10;;;1.80;99.90;0.80;100893;;;;589657;239;24054;-81
2023/05/01 02:35:48;;;;;;;12.53;6.67;;;1.80;99.90;0.80;100887;;;;589876;239;24064;-83
2023/05/01 02:38:16;;;;;;;15.07;7.00;;;1.90;99.90;0.80;100886;;;;589804;239;24043;-82
2023/05/01 02:40:45;;;;;;;10.33;6.43;;;1.90;99.90;0.80;100878;;;;586870;239;24098;-83
2023/05/01 02:43:12;;;;;;;11.67;6.37;;;1.90;99.90;0.90;100886;;;;590100;239;24085;-79
2023/05/01 02:45:40;;;;;;;8.67;6.07;;;1.90;99.90;0.80;100890;;;;590200;239;24087;-76
2023/05/01 02:48:08;;;;;;;9.27;6.80;;;1.90;99.90;0.90;100887;;;;590132;239;24034;-74
2023/05/01 02:50:39;;;;;;;10.50;6.13;;;1.90;99.90;0.90;100887;;;;591009;239;24032;-76
2023/05/01 02:53:07;;;;;;;12.50;6.27;;;2.00;99.90;0.90;100883;;;;591283;239;24067;-74
2023/05/01 02:55:32;;;;;;;10.77;6.23;;;2.00;99.90;0.90;100880;;;;590822;239;24039;-75
2023/05/01 02:58:00;;;;;;;9.50;6.07;;;2.00;99.90;0.90;100891;;;;590848;238;24085;-75
2023/05/01 03:00:28;;;;;;;10.20;6.97;;;2.00;99.90;0.90;100883;;;;590885;239;24087;-73
2023/05/01 03:02:57;;;;;;;11.03;6.47;;;2.00;99.90;0.90;100884;;;;590589;239;24025;-82
2023/05/01 03:05:25;;;;;;;12.33;6.97;;;2.00;99.90;0.90;100876;;;;590793;239;24049;-82
2023/05/01 03:07:53;;;;;;;14.77;6.53;;;1.90;99.90;0.90;100884;;;;590521;239;24014;-82
2023/05/01 03:10:21;;;;;;;11.90;6.67;;;2.00;99.90;0.90;100874;;;;590177;239;24026;-83
2023/05/01 03:12:49;;;;;;;11.00;6.50;;;1.90;99.90;0.90;100870;;;;589995;239;24058;-79
2023/05/01 03:15:18;;;;;;;13.07;6.20;;;2.00;99.90;0.90;100873;;;;590162;239;24015;-78
2023/05/01 03:17:45;;;;;;;11.80;6.37;;;1.90;99.90;1.00;100868;;;;589978;239;24041;-78
2023/05/01 03:20:13;;;;;;;13.50;6.60;;;2.00;99.90;1.00;100869;;;;589904;239;24054;-83
2023/05/01 03:22:41;;;;;;;14.07;6.97;;;2.00;99.90;1.00;100867;;;;590117;239;24047;-80
2023/05/01 03:25:10;;;;;;;15.70;7.03;;;2.00;99.90;1.00;100868;;;;589982;239;24079;-79
2023/05/01 03:27:41;;;;;;;9.80;5.43;;;2.10;99.90;1.10;100863;;;;589796;239;24135;-81
2023/05/01 03:30:09;;;;;;;6.90;6.20;;;2.10;99.90;1.10;100868;;;;589582;239;24051;-81
2023/05/01 03:32:35;;;;;;;9.83;6.10;;;2.10;99.90;1.20;100864;;;;589691;239;24074;-82
2023/05/01 03:35:03;;;;;;;10.23;6.27;;;2.10;99.90;1.20;100861;;;;589970;239;24096;-75
2023/05/01 03:37:32;;;;;;;11.87;6.40;;;2.20;99.90;1.20;100873;;;;590107;239;24084;-76
2023/05/01 03:40:02;;;;;;;12.17;6.13;;;2.20;99.90;1.30;100863;;;;589982;239;24054;-75
2023/05/01 03:42:27;;;;;;;10.63;6.07;;;2.30;99.90;1.40;100860;;;;589351;239;24081;-77
2023/05/01 03:44:55;;;;;;;10.17;6.37;;;2.30;99.90;1.40;100859;;;;589867;239;24039;-76
2023/05/01 03:47:23;;;;;;;8.03;5.87;;;2.40;99.90;1.50;100861;;;;589729;239;24094;-81
2023/05/01 03:49:54;;;;;;;7.72;6.28;;;2.40;99.90;1.60;100862;;;;584614;239;35072;-80
2023/05/01 03:52:21;;;;;;;11.63;5.80;;;2.50;99.90;1.70;100867;;;;584531;239;45911;-84
2023/05/01 03:54:49;;;;;;;9.20;4.13;;;2.60;99.90;1.80;100864;;;;587797;239;25435;-75
2023/05/01 03:57:19;;;;;;;5.13;3.03;;;2.70;99.90;1.90;100865;;;;589901;239;24071;-76
2023/05/01 03:59:45;;;;;;;9.03;3.50;;;2.80;99.90;2.00;100869;;;;588044;239;24042;-74
2023/05/01 04:02:13;;;;;;;6.90;3.40;;;3.00;99.90;2.20;100857;;;;590899;239;24100;-74
2023/05/01 04:04:41;;;;;;;7.60;3.50;;;3.10;99.90;2.40;100865;;;;589684;240;24020;-75
2023/05/01 04:07:11;;;;;;;7.07;3.37;;;3.30;99.90;2.50;100867;;;;586971;238;24067;-75
2023/05/01 04:09:36;;;;;;;10.80;4.23;;;3.40;99.90;2.70;100869;;;;590726;239;24038;-75
2023/05/01 04:12:04;;;;;;;6.63;3.60;;;3.60;99.90;2.90;100870;;;;589123;240;24061;-80
2023/05/01 04:14:32;;;;;;;7.93;4.03;;;3.80;99.90;3.50;100872;;;;586531;237;24035;-76
2023/05/01 04:17:01;;;;;;;9.17;3.63;;;5.70;99.90;4.90;100877;;;;590491;239;24149;-82
2023/05/01 04:19:29;;;;;;;7.10;3.53;;;5.60;99.90;6.60;100889;;;;588708;240;24098;-80
2023/05/01 04:21:57;;;;;;;6.30;4.10;;;7.40;99.90;8.30;100884;;;;586259;238;24085;-79
2023/05/01 04:24:25;;;;;;;11.70;3.93;;;9.20;99.90;9.90;100891;;;;590370;239;24039;-80
2023/05/01 04:26:52;;;;;;;4.97;3.33;;;10.80;99.90;11.20;100896;;;;589019;240;24030;-82
2023/05/01 04:29:20;;;;;;;4.83;3.60;;;12.30;99.90;12.50;100903;;;;586544;237;24042;-79
2023/05/01 04:31:48;;;;;;;8.60;3.20;;;13.60;99.90;12.80;100891;;;;591151;239;24062;-82
2023/05/01 04:34:16;;;;;;;6.53;3.10;;;14.10;99.90;12.70;100893;;;;586616;239;24030;-83
2023/05/01 04:36:45;;;;;;;5.10;3.37;;;14.10;99.90;12.50;100896;;;;590531;239;24023;-74
2023/05/01 04:39:12;;;;;;;6.55;3.87;;;13.90;99.90;12.50;100903;;;;584746;239;56794;-75
2023/05/01 04:41:40;;;;;;;6.10;3.57;;;13.80;99.90;12.30;100896;;;;589742;239;24058;-77
2023/05/01 04:44:09;;;;;;;4.00;3.57;;;13.70;99.90;12.60;100904;;;;579813;244;24095;-80
2023/05/01 04:46:37;;;;;;;5.07;3.43;;;13.70;99.90;13.50;100906;;;;576541;243;24099;-80
2023/05/01 04:49:04;;;;;;;7.23;2.93;;;14.50;99.90;14.40;100918;;;;588564;243;24041;-78
2023/05/01 04:51:32;;;;;;;7.20;3.43;;;15.40;99.90;15.80;100916;;;;579218;244;24073;-82
2023/05/01 04:54:03;;;;;;;5.87;3.37;;;16.70;99.70;17.30;100922;;;;579749;244;24088;-77
2023/05/01 04:56:28;;;;;;;4.80;2.93;;;18.10;95.30;18.80;100917;;;;588511;243;24075;-81
2023/05/01 04:58:56;;;;;;;5.17;2.73;;;19.60;84.40;19.40;100925;;;;578742;244;24104;-81
2023/05/01 05:01:24;;;;;;;4.33;3.13;;;20.40;79.70;20.30;100924;;;;579058;244;24122;-78
2023/05/01 05:03:55;;;;;;;7.50;3.17;;;21.30;75.30;21.20;100930;;;;575830;244;24121;-80
2023/05/01 05:06:20;;;;;;;6.80;3.20;;;22.20;70.90;22.00;100928;;;;578614;244;24113;-76
2023/05/01 05:08:50;;;;;;;7.10;3.00;;;23.00;65.10;22.60;100935;;;;578633;244;24052;-75
2023/05/01 05:11:16;;;;;;;5.17;3.53;;;23.60;61.80;23.30;100938;;;;579536;244;24130;-76
2023/05/01 05:13:47;;;;;;;6.60;3.23;;;24.30;58.40;23.80;100933;;;;591710;239;24086;-77
2023/05/01 05:16:12;;;;;;;4.47;2.93;;;24.90;56.10;24.50;100935;;;;592253;239;23059;-75
2023/05/01 05:18:42;;;;;;;4.70;2.40;;;25.60;55.40;25.50;100942;;;;599150;239;23038;-75
2023/05/01 05:21:10;;;;;;;4.23;2.87;;;26.40;53.70;26.30;100940;;;;598588;239;23051;-75
2023/05/01 05:23:38;;;;;;;5.10;3.00;;;27.20;51.00;26.80;100945;;;;562489;250;24168;-79
2023/05/01 05:26:06;;;;;;;3.53;2.53;;;27.80;49.60;27.10;100951;;;;565933;250;23095;-76
2023/05/01 05:28:37;;;;;;;4.80;2.60;;;28.20;48.20;27.90;100962;;;;565685;250;23110;-76
2023/05/01 05:31:04;;;;;;;4.18;2.33;;;28.90;47.60;28.70;100952;;;;566508;249;24534;-76
2023/05/01 05:33:32;;;;;;;6.30;2.47;;;29.50;45.50;29.00;100956;;;;565356;248;23068;-76
2023/05/01 05:36:00;;;;;;;5.07;2.25;;;29.90;44.80;29.40;100956;;;;570200;248;24223;-77
2023/05/01 05:38:28;;;;;;;4.78;2.25;;;30.30;44.00;30.00;100964;;;;570217;248;23119;-75
2023/05/01 05:40:58;;;;;;;3.85;2.58;;;30.90;43.40;30.50;100969;;;;570105;248;23123;-75
2023/05/01 05:43:24;;;;;;;4.18;2.53;;;31.50;41.90;30.90;100968;;;;564845;250;23133;-75
2023/05/01 05:45:52;;;;;;;2.70;2.10;;;31.80;40.70;31.10;100958;;;;565357;250;23103;-78
2023/05/01 05:48:20;;;;;;;4.78;2.62;;;32.10;40.20;31.30;100961;;;;565515;250;23107;-79
2023/05/01 05:50:49;;;;;;;2.95;2.45;;;32.30;39.80;31.80;100966;;;;565137;250;24123;-77
2023/05/01 05:53:17;;;;;;;5.80;2.65;;;32.60;39.00;32.30;100965;;;;565551;250;23106;-77
2023/05/01 05:55:45;;;;;;;2.72;2.35;;;33.00;38.40;32.70;100966;;;;565540;250;23121;-78
2023/05/01 05:58:18;;;;;;;4.30;2.85;;;33.40;38.20;32.80;100963;;;;565503;250;23119;-77
2023/05/01 06:00:42;;;;;;;4.53;2.97;;;33.70;38.00;33.30;100963;;;;560159;250;35339;-77
2023/05/01 06:03:10;;;;;;;5.00;2.85;;;33.90;37.00;33.30;100962;;;;565225;250;23146;-78
2023/05/01 06:05:40;;;;;;;4.00;2.85;;;34.10;36.60;33.70;100964;;;;565367;250;23120;-79
2023/05/01 06:08:11;;;;;;;8.52;2.83;;;34.40;36.50;34.20;100961;;;;565244;250;23100;-78
2023/05/01 06:10:38;;;;;;;6.75;2.85;;;34.90;35.90;34.50;100962;;;;584736;244;23164;-78
2023/05/01 06:13:07;;;;;;;3.62;2.50;;;35.20;35.50;34.70;100964;;;;565679;250;25213;-77
2023/05/01 06:15:36;;;;;;;2.85;1.85;;;35.50;34.90;35.00;100972;;;;571600;244;23062;-81
2023/05/01 06:18:00;;;;;;;5.07;2.33;;;35.70;34.00;35.20;100961;;;;573420;250;23140;-77
2023/05/01 06:20:31;;;;;;;2.95;2.00;;;35.90;34.10;35.60;100965;;;;565311;250;24147;-78
2023/05/01 06:22:59;;;;;;;4.35;1.90;;;36.30;32.80;35.90;100972;;;;584541;245;23134;-76
2023/05/01 06:25:24;;;;;;;2.28;1.75;;;36.50;33.20;36.20;100970;;;;568719;239;23103;-78
2023/05/01 06:27:52;;;;;;;2.40;2.10;;;36.80;32.90;36.80;100959;;;;591073;239;23075;-81
2023/05/01 06:30:20;;;;;;;3.85;2.20;;;37.30;32.20;37.10;100971;;;;590055;239;23058;-78
2023/05/01 06:32:51;;;;;;;4.37;1.70;;;37.70;31.40;37.20;100966;;;;591260;240;23134;-78
2023/05/01 06:35:20;;;;;;;4.87;2.40;;;37.80;30.70;37.30;100969;;;;574682;244;35108;-80
2023/05/01 06:37:44;;;;;;;4.53;2.47;;;37.90;31.00;37.10;100973;;;;574743;244;35104;-76
2023/05/01 06:40:14;;;;;;;4.03;2.30;;;37.90;30.80;37.20;100971;;;;579540;244;24130;-76
2023/05/01 06:42:43;;;;;;;2.92;1.80;;;37.90;31.30;37.50;100974;;;;587248;240;23066;-78
2023/05/01 06:45:07;;;;;;;4.80;2.40;;;38.10;31.20;37.80;100969;;;;568909;249;24112;-75
2023/05/01 06:47:36;;;;;;;4.32;2.45;;;38.60;31.50;38.10;100968;;;;577045;244;23069;-79
2023/05/01 06:50:07;;;;;;;2.62;1.92;;;38.60;31.50;38.50;100965;;;;569571;248;23092;-79
2023/05/01 06:52:35;;;;;;;5.22;2.45;;;38.90;31.20;38.40;100966;;;;569781;248;23155;-80
2023/05/01 06:55:00;;;;;;;3.50;1.85;;;39.00;30.40;38.80;100957;;;;575671;244;24082;-81
2023/05/01 06:57:28;;;;;;;5.72;2.10;;;39.20;30.50;39.20;100959;;;;579743;239;23098;-79
2023/05/01 06:59:56;;;;;;;2.05;1.70;;;39.60;30.10;39.40;100965;;;;590045;239;23046;-80
2023/05/01 07:02:24;;;;;;;3.60;1.90;;;39.80;30.00;39.70;100967;;;;594619;239;23077;-80
2023/05/01 07:04:55;;;;;;;3.80;2.00;;;40.10;29.40;40.00;100961;;;;594470;239;23027;-82
2023/05/01 07:07:19;;;;;;;3.67;2.20;;;40.40;29.30;40.40;100953;;;;588144;243;23087;-82
2023/05/01 07:09:50;;;;;;;2.55;1.95;;;40.80;29.10;40.80;100954;;;;588389;240;23068;-77
2023/05/01 07:12:15;;;;;;;4.05;2.30;;;41.20;28.90;40.90;100961;;;;575835;245;24145;-84
2023/05/01 07:14:46;;;;;;;2.25;1.85;;;41.40;28.70;41.00;100953;;;;579360;244;23125;-83
2023/05/01 07:17:14;;;;;;;1.95;1.65;;;41.50;28.50;41.00;100958;;;;591021;239;23046;-79
2023/05/01 07:19:41;;;;;;;2.12;1.87;;;41.60;28.50;41.40;100957;;;;582430;244;23061;-81
2023/05/01 07:22:09;;;;;;;6.07;1.75;;;41.90;28.60;41.60;100962;;;;578195;244;23088;-79
2023/05/01 07:24:38;;;;;;;2.87;2.15;;;42.10;28.40;41.60;100959;;;;584333;245;23064;-80
2023/05/01 07:27:06;;;;;;;5.20;2.10;;;42.10;28.30;41.70;100965;;;;594552;241;23049;-81
2023/05/01 07:29:34;;;;;;;2.10;1.90;;;42.20;28.20;41.60;100963;;;;591980;239;23016;-86
2023/05/01 07:32:06;;;;;;;4.82;2.10;;;42.20;28.20;41.70;100966;;;;582187;243;23084;-84
2023/05/01 07:34:30;;;;;;;3.78;2.37;;;42.20;28.00;41.90;100958;;;;575122;244;45999;-82
2023/05/01 07:37:02;;;;;;;3.53;2.20;;;42.40;28.00;41.60;100964;;;;576625;246;23087;-78
2023/05/01 07:39:27;;;;;;;4.15;1.87;;;42.20;27.90;41.50;100962;;;;572677;247;23097;-80
2023/05/01 07:41:55;;;;;;;3.95;2.10;;;42.10;28.00;41.80;100966;;;;571840;247;23084;-80
2023/05/01 07:44:23;;;;;;;3.35;2.20;;;42.30;27.90;42.00;100959;;;;571628;247;23290;-81
2023/05/01 07:46:51;;;;;;;4.43;1.92;;;42.50;28.00;42.30;100964;;;;571622;247;23094;-77
2023/05/01 07:49:19;;;;;;;6.35;2.30;;;42.80;28.00;42.50;100966;;;;570935;247;23099;-77
2023/05/01 07:51:49;;;;;;;2.87;2.20;;;42.90;27.00;42.10;100963;;;;570962;247;23086;-78
2023/05/01 07:54:15;;;;;;;5.62;2.28;;;42.60;27.20;42.20;100967;;;;571125;247;23132;-80
2023/05/01 07:56:43;;;;;;;4.10;2.17;;;42.60;27.20;42.30;100964;;;;570682;247;23136;-77
2023/05/01 07:59:15;;;;;;;2.05;1.73;;;42.70;27.70;42.50;100960;;;;570056;247;23220;-78
2023/05/01 08:01:40;;;;;;;1.98;1.87;;;43.00;27.50;42.50;100958;;;;569457;247;23090;-77
2023/05/01 08:04:07;;;;;;;3.30;1.98;;;43.10;27.40;42.70;100957;;;;569792;247;23186;-79
2023/05/01 08:06:35;;;;;;;7.43;2.25;;;43.20;27.20;42.30;100969;;;;570011;247;23101;-76
2023/05/01 08:09:03;;;;;;;5.45;2.50;;;43.00;27.50;42.40;100959;;;;569950;247;23095;-75
2023/05/01 08:11:32;;;;;;;4.90;2.47;;;43.00;27.50;42.30;100959;;;;570398;247;23096;-77
2023/05/01 08:13:59;;;;;;;2.47;2.12;;;43.00;27.80;42.20;100965;;;;570154;248;23103;-77
2023/05/01 08:16:31;;;;;;;4.18;2.30;;;42.90;27.30;42.00;100954;;;;570161;248;23150;-78
2023/05/01 08:18:55;;;;;;;4.80;2.17;;;42.80;27.60;42.50;100953;;;;569957;248;23129;-76
2023/05/01 08:21:24;;;;;;;3.10;2.60;;;43.10;27.30;42.30;100950;;;;570322;248;23128;-75
2023/05/01 08:23:52;;;;;;;3.92;2.17;;;43.00;27.80;42.30;100949;;;;570272;248;23089;-76
2023/05/01 08:26:20;;;;;;;5.30;2.53;;;42.90;27.20;42.40;100951;;;;570111;248;23111;-75
2023/05/01 08:28:48;;;;;;;2.83;2.47;;;43.10;27.80;42.70;100955;;;;570445;248;23113;-76
2023/05/01 08:31:18;;;;;;;3.00;2.75;;;43.30;27.50;42.60;100955;;;;570697;248;23081;-77
2023/05/01 08:33:44;;;;;;;4.43;2.42;;;43.30;27.30;42.30;100956;;;;571155;248;23149;-76
2023/05/01 08:36:12;;;;;;;4.45;2.78;;;43.20;27.50;42.40;100955;;;;571089;248;23108;-77
2023/05/01 08:38:40;;;;;;;3.37;2.37;;;43.30;27.60;42.70;100957;;;;571474;248;23088;-76
2023/05/01 08:41:12;;;;;;;4.43;2.70;;;43.60;27.90;43.10;100955;;;;576029;248;23144;-75
2023/05/01 08:43:40;;;;;;;3.70;2.60;;;44.30;27.50;43.30;100953;;;;575537;248;23141;-79
2023/05/01 08:46:04;;;;;;;4.95;2.53;;;44.30;27.40;43.20;100953;;;;569666;248;23131;-77
2023/05/01 08:48:32;;;;;;;3.85;2.65;;;44.40;27.60;43.00;100946;;;;582250;244;23098;-79
2023/05/01 08:51:00;;;;;;;4.00;2.65;;;44.20;26.90;43.00;100950;;;;591192;239;23079;-77
2023/05/01 08:53:31;;;;;;;3.03;2.53;;;44.20;27.10;43.00;100956;;;;580165;244;23084;-76
2023/05/01 08:55:56;;;;;;;5.60;2.50;;;44.20;27.40;43.10;100950;;;;580094;244;23111;-77
2023/05/01 08:58:25;;;;;;;2.20;1.98;;;44.40;27.60;43.40;100949;;;;579562;244;23163;-76
2023/05/01 09:00:55;;;;;;;4.40;2.47;;;44.60;27.40;43.50;100943;;;;572792;244;23104;-79
2023/05/01 09:03:25;;;;;;;2.90;2.30;;;44.90;27.00;43.00;100950;;;;599927;239;23097;-78
2023/05/01 09:05:53;;;;;;;3.33;2.37;;;44.50;27.20;42.80;100947;;;;571529;246;23215;-77
2023/05/01 09:08:19;;;;;;;5.10;3.03;;;44.20;26.80;42.60;100947;;;;584882;243;23145;-81
2023/05/01 09:10:47;;;;;;;3.03;2.65;;;43.90;27.10;42.10;100940;;;;584001;241;23135;-77
2023/05/01 09:13:15;;;;;;;2.58;2.30;;;43.90;27.00;42.50;100942;;;;579685;244;24139;-77
2023/05/01 09:15:43;;;;;;;2.33;2.12;;;43.90;27.30;42.10;100951;;;;576894;244;23070;-79
2023/05/01 09:18:11;;;;;;;3.22;2.30;;;43.70;27.30;42.30;100946;;;;580328;244;23086;-79
2023/05/01 09:20:39;;;;;;;5.05;2.72;;;43.70;27.10;42.50;100941;;;;580295;244;23123;-80
2023/05/01 09:23:06;;;;;;;5.10;2.50;;;43.90;26.60;42.80;100934;;;;580493;244;23070;-78
2023/05/01 09:25:34;;;;;;;8.52;2.95;;;44.20;27.40;42.40;100929;;;;580383;244;23064;-77
2023/05/01 09:28:02;;;;;;;3.53;2.80;;;44.10;26.20;41.40;100927;;;;577074;244;23094;-81
2023/05/01 09:30:36;;;;;;;3.58;2.45;;;43.60;26.50;40.50;100925;;;;580086;244;23087;-80
2023/05/01 09:33:10;;;;;;;4.18;2.60;;;42.80;26.60;40.40;100925;;;;579892;244;23068;-78
2023/05/01 09:35:53;;;;;;;3.47;2.37;;;42.40;27.90;40.80;100919;;;;576903;244;23140;-79
2023/05/01 09:38:23;;;;;;;7.37;2.70;;;42.60;27.30;41.00;100923;;;;577048;244;23101;-84
2023/05/01 09:40:55;;;;;;;4.37;2.55;;;42.70;27.20;41.60;100920;;;;580265;244;23102;-82
2023/05/01 09:43:28;;;;;;;7.05;2.37;;;43.30;26.60;41.10;100914;;;;584313;244;23088;-79
2023/05/01 09:46:02;;;;;;;3.03;2.55;;;43.10;26.50;40.20;100909;;;;580014;244;23063;-79
2023/05/01 09:48:28;;;;;;;3.95;2.40;;;42.40;26.60;39.80;100913;;;;585214;237;23047;-81
2023/05/01 09:50:55;;;;;;;8.45;2.40;;;41.80;26.90;39.80;100911;;;;589799;240;23052;-80
2023/05/01 09:53:39;;;;;;;4.55;2.50;;;42.40;27.40;40.60;100912;;;;579140;245;23074;-75
2023/05/01 09:56:07;;;;;;;2.20;2.03;;;42.30;27.30;41.50;100901;;;;589807;240;23088;-80
2023/05/01 09:58:38;;;;;;;5.93;2.78;;;43.30;26.40;42.20;100897;;;;578000;245;23079;-83
2023/05/01 10:01:02;;;;;;;3.83;2.37;;;43.90;26.40;42.50;100897;;;;578977;244;24108;-82
2023/05/01 10:03:31;;;;;;;3.60;2.40;;;44.50;26.30;42.10;100892;;;;589294;240;23049;-78
2023/05/01 10:06:00;;;;;;;3.70;2.37;;;44.50;26.00;41.90;100892;;;;577808;244;23073;-80
2023/05/01 10:08:29;;;;;;;2.33;1.83;;;44.50;25.70;41.50;100899;;;;577793;244;23110;-79
2023/05/01 10:11:00;;;;;;;5.22;2.55;;;44.20;26.10;41.30;100885;;;;585306;239;23046;-80
2023/05/01 10:13:29;;;;;;;2.90;2.22;;;43.90;25.60;41.30;100895;;;;599895;239;23062;-81
2023/05/01 10:15:57;;;;;;;4.30;2.00;;;43.90;25.60;40.40;100885;;;;590484;239;23081;-75
2023/05/01 10:18:25;;;;;;;2.58;1.80;;;43.40;25.70;40.10;100884;;;;575525;246;23122;-75
2023/05/01 10:20:56;;;;;;;2.70;2.00;;;42.80;25.70;38.50;100878;;;;585049;242;24083;-79
2023/05/01 10:23:23;;;;;;;3.37;2.00;;;41.50;25.80;36.90;100878;;;;585177;240;23027;-80
2023/05/01 10:25:51;;;;;;;5.78;2.45;;;38.80;27.00;36.00;100867;;;;585187;242;23128;-79
2023/05/01 10:28:18;;;;;;;1.80;1.70;;;37.60;27.20;34.90;100863;;;;585092;242;23069;-80
2023/05/01 10:30:49;;;;;;;5.10;1.90;;;37.50;27.20;34.10;100865;;;;585341;242;23039;-81
2023/05/01 10:33:17;;;;;;;4.12;2.00;;;36.50;28.00;33.30;100854;;;;594385;241;23107;-79
2023/05/01 10:35:41;;;;;;;2.78;1.73;;;35.70;28.10;31.90;100852;;;;585325;242;23046;-78
2023/05/01 10:38:09;;;;;;;2.55;1.67;;;34.50;29.20;31.20;100853;;;;568640;244;23091;-81
2023/05/01 10:40:50;;;;;;;1.70;1.60;;;32.20;30.20;30.30;100849;;;;566465;248;23138;-78
2023/05/01 10:43:27;;;;;;;1.98;1.65;;;32.10;30.10;29.20;100839;;;;570354;243;23065;-78
2023/05/01 10:46:07;;;;;;;2.15;1.70;;;30.80;30.90;27.70;100835;;;;576954;248;23113;-76
2023/05/01 10:48:44;;;;;;;1.45;1.35;;;29.40;31.20;26.30;100820;;;;575331;244;23106;-74
2023/05/01 10:51:12;;;;;;;3.00;1.57;;;27.90;32.70;25.00;100818;;;;574878;246;23101;-74
2023/05/01 10:53:39;;;;;;;3.13;1.50;;;26.60;34.40;24.10;100819;;;;572990;250;23133;-75
2023/05/01 10:56:32;;;;;;;2.87;1.43;;;25.40;34.30;22.90;100808;;;;564159;251;23165;-76
2023/05/01 10:59:03;;;;;;;3.43;1.60;;;24.30;34.70;21.80;100804;;;;574549;246;23196;-75
2023/05/01 11:01:36;;;;;;;2.53;1.43;;;23.10;37.60;21.20;100805;;;;572862;244;24189;-73
2023/05/01 11:04:07;;;;;;;4.93;1.87;;;22.30;39.60;20.60;100797;;;;564126;249;24117;-75
2023/05/01 11:06:38;;;;;;;3.30;1.60;;;21.70;39.10;19.90;100796;;;;568305;246;24144;-73
2023/05/01 11:09:03;;;;;;;2.13;1.70;;;20.90;41.00;19.30;100786;;;;564608;248;24089;-75
2023/05/01 11:11:31;;;;;;;4.37;1.90;;;20.20;42.70;18.80;100787;;;;572716;245;24093;-78
2023/05/01 11:14:09;;;;;;;5.37;1.73;;;19.70;43.90;18.60;100783;;;;584771;244;24079;-78
2023/05/01 11:16:39;;;;;;;3.53;1.60;;;19.30;45.00;18.30;100777;;;;565686;248;24081;-75
2023/05/01 11:19:09;;;;;;;11.43;2.10;;;18.90;44.70;17.80;100776;;;;574127;248;24088;-75
2023/05/01 11:21:41;;;;;;;2.13;2.00;;;18.50;46.40;17.40;100762;;;;569390;243;24082;-75